sensor_id;sensor_type;location;lat;lon;timestamp;P1;durP1;ratioP1;P2;durP2;ratioP2
9222;SDS011;7557;51.698;3.942;2023-11-19T00:01:56;965.55;;;902.63;;
9222;SDS011;7557;51.698;3.942;2023-11-19T00:04:24;944.28;;;884.80;;
9222;SDS011;7557;51.698;3.942;2023-11-19T00:06:53;941.90;;;882.08;;
9222;SDS011;7557;51.698;3.942;2023-11-19T00:09:20;970.28;;;907.35;;
9222;SDS011;7557;51.698;3.942;2023-11-19T00:11:47;939.08;;;881.08;;
9222;SDS011;7557;51.698;3.942;2023-11-19T00:14:14;939.13;;;880.42;;
9222;SDS011;7557;51.698;3.942;2023-11-19T00:16:42;944.40;;;880.97;;
9222;SDS011;7557;51.698;3.942;2023-11-19T00:19:09;951.70;;;887.15;;
9222;SDS011;7557;51.698;3.942;2023-11-19T00:21:37;1017.90;;;935.65;;
9222;SDS011;7557;51.698;3.942;2023-11-19T00:24:06;983.00;;;914.63;;
9222;SDS011;7557;51.698;3.942;2023-11-19T00:26:33;952.58;;;889.22;;
9222;SDS011;7557;51.698;3.942;2023-11-19T00:29:00;966.30;;;903.10;;
9222;SDS011;7557;51.698;3.942;2023-11-19T00:31:27;967.60;;;905.38;;
9222;SDS011;7557;51.698;3.942;2023-11-19T00:33:55;961.72;;;899.10;;
9222;SDS011;7557;51.698;3.942;2023-11-19T00:36:22;1016.17;;;929.55;;
9222;SDS011;7557;51.698;3.942;2023-11-19T00:38:49;991.03;;;919.22;;
9222;SDS011;7557;51.698;3.942;2023-11-19T00:41:19;1100.00;;;992.35;;
9222;SDS011;7557;51.698;3.942;2023-11-19T00:47:10;966.33;;;901.83;;
9222;SDS011;7557;51.698;3.942;2023-11-19T00:49:37;935.35;;;873.92;;
9222;SDS011;7557;51.698;3.942;2023-11-19T00:52:04;963.72;;;898.83;;
9222;SDS011;7557;51.698;3.942;2023-11-19T00:54:31;948.75;;;885.63;;
9222;SDS011;7557;51.698;3.942;2023-11-19T00:57:00;943.13;;;881.17;;
9222;SDS011;7557;51.698;3.942;2023-11-19T00:59:27;952.35;;;884.28;;
9222;SDS011;7557;51.698;3.942;2023-11-19T01:01:55;962.97;;;897.80;;
9222;SDS011;7557;51.698;3.942;2023-11-19T01:04:22;930.90;;;868.58;;
9222;SDS011;7557;51.698;3.942;2023-11-19T01:06:50;958.00;;;894.70;;
9222;SDS011;7557;51.698;3.942;2023-11-19T01:09:17;1023.83;;;941.45;;
9222;SDS011;7557;51.698;3.942;2023-11-19T01:11:44;941.47;;;876.35;;
9222;SDS011;7557;51.698;3.942;2023-11-19T01:14:13;869.90;;;815.88;;
9222;SDS011;7557;51.698;3.942;2023-11-19T01:16:40;869.33;;;816.40;;
9222;SDS011;7557;51.698;3.942;2023-11-19T01:19:08;905.63;;;850.25;;
9222;SDS011;7557;51.698;3.942;2023-11-19T01:21:36;932.80;;;868.28;;
9222;SDS011;7557;51.698;3.942;2023-11-19T01:24:03;875.30;;;819.60;;
9222;SDS011;7557;51.698;3.942;2023-11-19T01:26:34;850.03;;;798.78;;
9222;SDS011;7557;51.698;3.942;2023-11-19T01:29:01;876.72;;;823.13;;
9222;SDS011;7557;51.698;3.942;2023-11-19T01:31:31;866.55;;;814.08;;
9222;SDS011;7557;51.698;3.942;2023-11-19T01:33:59;819.08;;;768.72;;
9222;SDS011;7557;51.698;3.942;2023-11-19T01:36:26;828.92;;;778.47;;
9222;SDS011;7557;51.698;3.942;2023-11-19T01:38:53;845.03;;;794.70;;
9222;SDS011;7557;51.698;3.942;2023-11-19T01:41:20;820.13;;;769.25;;
9222;SDS011;7557;51.698;3.942;2023-11-19T01:43:47;832.60;;;782.40;;
9222;SDS011;7557;51.698;3.942;2023-11-19T01:46:15;803.10;;;756.70;;
9222;SDS011;7557;51.698;3.942;2023-11-19T01:48:44;836.55;;;787.05;;
9222;SDS011;7557;51.698;3.942;2023-11-19T01:51:13;799.97;;;754.72;;
9222;SDS011;7557;51.698;3.942;2023-11-19T01:53:42;834.55;;;785.92;;
9222;SDS011;7557;51.698;3.942;2023-11-19T01:56:11;810.67;;;762.63;;
9222;SDS011;7557;51.698;3.942;2023-11-19T01:58:41;813.70;;;766.30;;
9222;SDS011;7557;51.698;3.942;2023-11-19T02:01:09;817.90;;;770.97;;
9222;SDS011;7557;51.698;3.942;2023-11-19T02:03:37;837.55;;;786.75;;
9222;SDS011;7557;51.698;3.942;2023-11-19T02:06:07;820.03;;;771.88;;
9222;SDS011;7557;51.698;3.942;2023-11-19T02:08:35;825.20;;;775.67;;
9222;SDS011;7557;51.698;3.942;2023-11-19T02:11:04;874.30;;;811.83;;
9222;SDS011;7557;51.698;3.942;2023-11-19T02:13:32;826.40;;;778.23;;
9222;SDS011;7557;51.698;3.942;2023-11-19T02:16:01;802.25;;;756.38;;
9222;SDS011;7557;51.698;3.942;2023-11-19T02:18:29;806.95;;;759.92;;
9222;SDS011;7557;51.698;3.942;2023-11-19T02:20:56;788.38;;;743.72;;
9222;SDS011;7557;51.698;3.942;2023-11-19T02:23:26;807.20;;;758.47;;
9222;SDS011;7557;51.698;3.942;2023-11-19T02:25:58;783.63;;;740.35;;
9222;SDS011;7557;51.698;3.942;2023-11-19T02:28:32;745.20;;;704.58;;
9222;SDS011;7557;51.698;3.942;2023-11-19T02:31:00;789.85;;;746.42;;
9222;SDS011;7557;51.698;3.942;2023-11-19T02:33:27;760.58;;;717.25;;
9222;SDS011;7557;51.698;3.942;2023-11-19T02:35:54;758.72;;;717.58;;
9222;SDS011;7557;51.698;3.942;2023-11-19T02:38:21;750.35;;;708.85;;
9222;SDS011;7557;51.698;3.942;2023-11-19T02:40:49;760.38;;;720.00;;
9222;SDS011;7557;51.698;3.942;2023-11-19T02:43:16;731.93;;;693.63;;
9222;SDS011;7557;51.698;3.942;2023-11-19T02:45:45;747.45;;;706.75;;
9222;SDS011;7557;51.698;3.942;2023-11-19T02:48:13;812.20;;;761.30;;
9222;SDS011;7557;51.698;3.942;2023-11-19T02:50:41;783.67;;;732.30;;
9222;SDS011;7557;51.698;3.942;2023-11-19T02:53:08;747.38;;;704.60;;
9222;SDS011;7557;51.698;3.942;2023-11-19T02:55:35;769.10;;;723.88;;
9222;SDS011;7557;51.698;3.942;2023-11-19T02:58:06;681.15;;;645.53;;
9222;SDS011;7557;51.698;3.942;2023-11-19T03:00:46;693.72;;;656.58;;
9222;SDS011;7557;51.698;3.942;2023-11-19T03:03:19;638.08;;;605.67;;
9222;SDS011;7557;51.698;3.942;2023-11-19T03:05:47;612.75;;;581.78;;
9222;SDS011;7557;51.698;3.942;2023-11-19T03:08:15;611.60;;;576.77;;
9222;SDS011;7557;51.698;3.942;2023-11-19T03:10:42;587.78;;;557.25;;
9222;SDS011;7557;51.698;3.942;2023-11-19T03:13:10;523.97;;;491.13;;
9222;SDS011;7557;51.698;3.942;2023-11-19T03:15:39;527.13;;;486.42;;
9222;SDS011;7557;51.698;3.942;2023-11-19T03:18:08;521.78;;;484.65;;
9222;SDS011;7557;51.698;3.942;2023-11-19T03:20:35;391.05;;;367.85;;
9222;SDS011;7557;51.698;3.942;2023-11-19T03:23:02;359.33;;;342.50;;
9222;SDS011;7557;51.698;3.942;2023-11-19T03:25:31;344.75;;;327.40;;
9222;SDS011;7557;51.698;3.942;2023-11-19T03:27:59;383.58;;;364.17;;
9222;SDS011;7557;51.698;3.942;2023-11-19T03:30:28;332.17;;;316.05;;
9222;SDS011;7557;51.698;3.942;2023-11-19T03:32:55;410.33;;;388.67;;
9222;SDS011;7557;51.698;3.942;2023-11-19T03:35:25;585.20;;;547.97;;
9222;SDS011;7557;51.698;3.942;2023-11-19T03:37:55;293.38;;;279.52;;
9222;SDS011;7557;51.698;3.942;2023-11-19T03:40:23;377.20;;;358.17;;
9222;SDS011;7557;51.698;3.942;2023-11-19T03:42:52;351.95;;;334.38;;
9222;SDS011;7557;51.698;3.942;2023-11-19T03:45:19;505.58;;;462.90;;
9222;SDS011;7557;51.698;3.942;2023-11-19T03:47:46;412.40;;;391.52;;
9222;SDS011;7557;51.698;3.942;2023-11-19T03:50:16;408.45;;;387.75;;
9222;SDS011;7557;51.698;3.942;2023-11-19T03:52:46;403.65;;;383.05;;
9222;SDS011;7557;51.698;3.942;2023-11-19T03:55:14;428.83;;;401.63;;
9222;SDS011;7557;51.698;3.942;2023-11-19T03:57:43;411.60;;;390.55;;
9222;SDS011;7557;51.698;3.942;2023-11-19T04:00:12;419.25;;;398.00;;
9222;SDS011;7557;51.698;3.942;2023-11-19T04:02:40;540.35;;;504.83;;
9222;SDS011;7557;51.698;3.942;2023-11-19T04:05:08;397.67;;;377.65;;
9222;SDS011;7557;51.698;3.942;2023-11-19T04:07:36;451.58;;;427.10;;
9222;SDS011;7557;51.698;3.942;2023-11-19T04:10:06;410.95;;;389.73;;
9222;SDS011;7557;51.698;3.942;2023-11-19T04:12:35;453.92;;;431.02;;
9222;SDS011;7557;51.698;3.942;2023-11-19T04:15:03;489.58;;;463.80;;
9222;SDS011;7557;51.698;3.942;2023-11-19T04:17:31;431.70;;;410.17;;
9222;SDS011;7557;51.698;3.942;2023-11-19T04:19:58;526.37;;;493.60;;
9222;SDS011;7557;51.698;3.942;2023-11-19T04:22:26;472.20;;;447.00;;
9222;SDS011;7557;51.698;3.942;2023-11-19T04:24:55;347.92;;;329.95;;
9222;SDS011;7557;51.698;3.942;2023-11-19T04:27:24;553.13;;;515.83;;
9222;SDS011;7557;51.698;3.942;2023-11-19T04:29:51;641.50;;;579.35;;
9222;SDS011;7557;51.698;3.942;2023-11-19T04:32:19;559.03;;;530.83;;
9222;SDS011;7557;51.698;3.942;2023-11-19T04:34:47;532.65;;;505.23;;
9222;SDS011;7557;51.698;3.942;2023-11-19T04:37:15;486.70;;;461.92;;
9222;SDS011;7557;51.698;3.942;2023-11-19T04:39:43;473.08;;;449.25;;
9222;SDS011;7557;51.698;3.942;2023-11-19T04:42:11;489.05;;;463.88;;
9222;SDS011;7557;51.698;3.942;2023-11-19T04:44:44;661.53;;;619.30;;
9222;SDS011;7557;51.698;3.942;2023-11-19T04:47:14;595.30;;;556.23;;
9222;SDS011;7557;51.698;3.942;2023-11-19T04:49:41;468.23;;;443.67;;
9222;SDS011;7557;51.698;3.942;2023-11-19T04:52:09;539.22;;;512.50;;
9222;SDS011;7557;51.698;3.942;2023-11-19T04:54:40;600.83;;;566.72;;
9222;SDS011;7557;51.698;3.942;2023-11-19T04:57:10;498.60;;;474.40;;
9222;SDS011;7557;51.698;3.942;2023-11-19T04:59:37;478.47;;;448.63;;
9222;SDS011;7557;51.698;3.942;2023-11-19T05:02:07;493.13;;;465.92;;
9222;SDS011;7557;51.698;3.942;2023-11-19T05:04:35;613.90;;;562.92;;
9222;SDS011;7557;51.698;3.942;2023-11-19T05:07:03;520.07;;;492.83;;
9222;SDS011;7557;51.698;3.942;2023-11-19T05:09:31;516.17;;;485.85;;
9222;SDS011;7557;51.698;3.942;2023-11-19T05:11:58;510.08;;;481.80;;
9222;SDS011;7557;51.698;3.942;2023-11-19T05:14:27;527.80;;;486.07;;
9222;SDS011;7557;51.698;3.942;2023-11-19T05:16:54;528.28;;;495.45;;
9222;SDS011;7557;51.698;3.942;2023-11-19T05:19:32;511.75;;;481.48;;
9222;SDS011;7557;51.698;3.942;2023-11-19T05:22:00;424.50;;;403.92;;
9222;SDS011;7557;51.698;3.942;2023-11-19T05:24:30;407.87;;;386.03;;
9222;SDS011;7557;51.698;3.942;2023-11-19T05:26:59;419.17;;;395.70;;
9222;SDS011;7557;51.698;3.942;2023-11-19T05:29:26;495.00;;;469.67;;
9222;SDS011;7557;51.698;3.942;2023-11-19T05:31:54;391.10;;;370.48;;
9222;SDS011;7557;51.698;3.942;2023-11-19T05:34:25;361.83;;;343.85;;
9222;SDS011;7557;51.698;3.942;2023-11-19T05:36:54;366.07;;;347.93;;
9222;SDS011;7557;51.698;3.942;2023-11-19T05:39:22;424.20;;;404.00;;
9222;SDS011;7557;51.698;3.942;2023-11-19T05:41:50;376.43;;;356.70;;
9222;SDS011;7557;51.698;3.942;2023-11-19T05:44:19;338.95;;;321.73;;
9222;SDS011;7557;51.698;3.942;2023-11-19T05:46:53;369.60;;;349.75;;
9222;SDS011;7557;51.698;3.942;2023-11-19T05:49:20;354.73;;;338.20;;
9222;SDS011;7557;51.698;3.942;2023-11-19T05:51:49;257.00;;;244.13;;
9222;SDS011;7557;51.698;3.942;2023-11-19T05:54:28;245.60;;;233.63;;
9222;SDS011;7557;51.698;3.942;2023-11-19T05:56:56;388.43;;;360.63;;
9222;SDS011;7557;51.698;3.942;2023-11-19T05:59:24;297.38;;;283.25;;
9222;SDS011;7557;51.698;3.942;2023-11-19T06:01:51;322.10;;;305.63;;
9222;SDS011;7557;51.698;3.942;2023-11-19T06:04:19;266.37;;;252.67;;
9222;SDS011;7557;51.698;3.942;2023-11-19T06:06:49;252.13;;;238.30;;
9222;SDS011;7557;51.698;3.942;2023-11-19T06:09:20;312.73;;;294.63;;
9222;SDS011;7557;51.698;3.942;2023-11-19T06:11:48;291.20;;;276.33;;
9222;SDS011;7557;51.698;3.942;2023-11-19T06:14:16;309.27;;;293.43;;
9222;SDS011;7557;51.698;3.942;2023-11-19T06:16:46;276.57;;;262.20;;
9222;SDS011;7557;51.698;3.942;2023-11-19T06:19:13;340.30;;;324.17;;
9222;SDS011;7557;51.698;3.942;2023-11-19T06:21:41;321.77;;;304.37;;
9222;SDS011;7557;51.698;3.942;2023-11-19T06:24:12;351.93;;;333.33;;
9222;SDS011;7557;51.698;3.942;2023-11-19T06:26:40;376.33;;;357.93;;
9222;SDS011;7557;51.698;3.942;2023-11-19T06:29:08;416.02;;;395.13;;
9222;SDS011;7557;51.698;3.942;2023-11-19T06:31:36;422.13;;;401.00;;
9222;SDS011;7557;51.698;3.942;2023-11-19T06:34:03;424.10;;;403.40;;
9222;SDS011;7557;51.698;3.942;2023-11-19T06:36:31;467.42;;;444.05;;
9222;SDS011;7557;51.698;3.942;2023-11-19T06:38:59;413.93;;;392.50;;
9222;SDS011;7557;51.698;3.942;2023-11-19T06:41:28;506.33;;;479.33;;
9222;SDS011;7557;51.698;3.942;2023-11-19T06:43:55;462.13;;;440.03;;
9222;SDS011;7557;51.698;3.942;2023-11-19T06:46:23;467.17;;;443.80;;
9222;SDS011;7557;51.698;3.942;2023-11-19T06:48:50;501.15;;;476.15;;
9222;SDS011;7557;51.698;3.942;2023-11-19T06:51:18;483.33;;;460.10;;
9222;SDS011;7557;51.698;3.942;2023-11-19T06:53:45;454.50;;;430.13;;
9222;SDS011;7557;51.698;3.942;2023-11-19T06:56:19;459.40;;;436.60;;
9222;SDS011;7557;51.698;3.942;2023-11-19T06:58:49;365.77;;;346.92;;
9222;SDS011;7557;51.698;3.942;2023-11-19T07:01:17;344.25;;;326.83;;
9222;SDS011;7557;51.698;3.942;2023-11-19T07:03:44;294.23;;;280.02;;
9222;SDS011;7557;51.698;3.942;2023-11-19T07:06:12;226.90;;;215.47;;
9222;SDS011;7557;51.698;3.942;2023-11-19T07:08:40;307.00;;;291.03;;
9222;SDS011;7557;51.698;3.942;2023-11-19T07:11:10;298.60;;;282.00;;
9222;SDS011;7557;51.698;3.942;2023-11-19T07:13:39;474.50;;;440.07;;
9222;SDS011;7557;51.698;3.942;2023-11-19T07:16:09;403.77;;;376.98;;
9222;SDS011;7557;51.698;3.942;2023-11-19T07:18:37;296.50;;;276.77;;
9222;SDS011;7557;51.698;3.942;2023-11-19T07:21:04;293.40;;;274.08;;
9222;SDS011;7557;51.698;3.942;2023-11-19T07:23:35;238.27;;;223.27;;
9222;SDS011;7557;51.698;3.942;2023-11-19T07:26:04;252.13;;;236.27;;
9222;SDS011;7557;51.698;3.942;2023-11-19T07:28:34;275.60;;;260.10;;
9222;SDS011;7557;51.698;3.942;2023-11-19T07:31:02;197.27;;;186.27;;
9222;SDS011;7557;51.698;3.942;2023-11-19T07:33:31;255.93;;;241.70;;
9222;SDS011;7557;51.698;3.942;2023-11-19T07:35:59;198.63;;;187.85;;
9222;SDS011;7557;51.698;3.942;2023-11-19T07:38:27;208.90;;;197.23;;
9222;SDS011;7557;51.698;3.942;2023-11-19T07:40:54;223.85;;;211.45;;
9222;SDS011;7557;51.698;3.942;2023-11-19T07:43:22;191.90;;;181.18;;
9222;SDS011;7557;51.698;3.942;2023-11-19T07:45:52;170.48;;;160.10;;
9222;SDS011;7557;51.698;3.942;2023-11-19T07:48:20;138.32;;;129.35;;
9222;SDS011;7557;51.698;3.942;2023-11-19T07:50:50;189.33;;;179.17;;
9222;SDS011;7557;51.698;3.942;2023-11-19T07:53:19;257.17;;;244.40;;
9222;SDS011;7557;51.698;3.942;2023-11-19T07:55:47;250.60;;;236.52;;
9222;SDS011;7557;51.698;3.942;2023-11-19T07:58:14;277.15;;;262.40;;
9222;SDS011;7557;51.698;3.942;2023-11-19T08:00:42;315.00;;;299.43;;
9222;SDS011;7557;51.698;3.942;2023-11-19T08:03:10;270.83;;;257.80;;
9222;SDS011;7557;51.698;3.942;2023-11-19T08:05:38;270.88;;;257.08;;
9222;SDS011;7557;51.698;3.942;2023-11-19T08:08:07;223.57;;;211.95;;
9222;SDS011;7557;51.698;3.942;2023-11-19T08:10:34;221.25;;;210.13;;
9222;SDS011;7557;51.698;3.942;2023-11-19T08:13:02;287.38;;;273.20;;
9222;SDS011;7557;51.698;3.942;2023-11-19T08:15:29;265.50;;;253.20;;
9222;SDS011;7557;51.698;3.942;2023-11-19T08:17:56;322.20;;;304.92;;
9222;SDS011;7557;51.698;3.942;2023-11-19T08:20:24;362.77;;;344.60;;
9222;SDS011;7557;51.698;3.942;2023-11-19T08:22:51;369.80;;;351.45;;
9222;SDS011;7557;51.698;3.942;2023-11-19T08:25:20;403.33;;;383.63;;
9222;SDS011;7557;51.698;3.942;2023-11-19T08:27:48;383.52;;;364.48;;
9222;SDS011;7557;51.698;3.942;2023-11-19T08:30:15;387.40;;;368.45;;
9222;SDS011;7557;51.698;3.942;2023-11-19T08:32:43;263.27;;;250.27;;
9222;SDS011;7557;51.698;3.942;2023-11-19T08:35:10;268.23;;;254.45;;
9222;SDS011;7557;51.698;3.942;2023-11-19T08:37:38;240.40;;;228.48;;
9222;SDS011;7557;51.698;3.942;2023-11-19T08:40:06;277.63;;;263.40;;
9222;SDS011;7557;51.698;3.942;2023-11-19T08:42:36;280.45;;;265.60;;
9222;SDS011;7557;51.698;3.942;2023-11-19T08:45:04;287.20;;;272.33;;
9222;SDS011;7557;51.698;3.942;2023-11-19T08:47:32;271.00;;;258.02;;
9222;SDS011;7557;51.698;3.942;2023-11-19T08:50:00;239.68;;;226.77;;
9222;SDS011;7557;51.698;3.942;2023-11-19T08:52:29;235.98;;;223.50;;
9222;SDS011;7557;51.698;3.942;2023-11-19T08:54:56;198.40;;;187.55;;
9222;SDS011;7557;51.698;3.942;2023-11-19T08:57:24;220.73;;;208.65;;
9222;SDS011;7557;51.698;3.942;2023-11-19T08:59:53;172.75;;;162.88;;
9222;SDS011;7557;51.698;3.942;2023-11-19T09:02:20;242.52;;;230.27;;
9222;SDS011;7557;51.698;3.942;2023-11-19T09:04:48;208.88;;;197.93;;
9222;SDS011;7557;51.698;3.942;2023-11-19T09:07:16;322.95;;;306.63;;
9222;SDS011;7557;51.698;3.942;2023-11-19T09:09:43;224.98;;;213.60;;
9222;SDS011;7557;51.698;3.942;2023-11-19T09:12:11;314.35;;;299.67;;
9222;SDS011;7557;51.698;3.942;2023-11-19T09:14:45;220.13;;;208.45;;
9222;SDS011;7557;51.698;3.942;2023-11-19T09:17:18;234.95;;;223.65;;
9222;SDS011;7557;51.698;3.942;2023-11-19T09:19:46;234.40;;;223.10;;
9222;SDS011;7557;51.698;3.942;2023-11-19T09:22:13;240.13;;;228.05;;
9222;SDS011;7557;51.698;3.942;2023-11-19T09:24:41;276.17;;;263.45;;
9222;SDS011;7557;51.698;3.942;2023-11-19T09:27:10;323.88;;;309.60;;
9222;SDS011;7557;51.698;3.942;2023-11-19T09:29:37;353.33;;;337.35;;
9222;SDS011;7557;51.698;3.942;2023-11-19T09:32:08;374.52;;;358.38;;
9222;SDS011;7557;51.698;3.942;2023-11-19T09:34:38;396.33;;;379.23;;
9222;SDS011;7557;51.698;3.942;2023-11-19T09:37:05;420.45;;;401.17;;
9222;SDS011;7557;51.698;3.942;2023-11-19T09:39:33;396.42;;;379.23;;
9222;SDS011;7557;51.698;3.942;2023-11-19T09:42:00;380.10;;;364.30;;
9222;SDS011;7557;51.698;3.942;2023-11-19T09:44:28;392.48;;;374.77;;
9222;SDS011;7557;51.698;3.942;2023-11-19T09:46:55;382.77;;;366.17;;
9222;SDS011;7557;51.698;3.942;2023-11-19T09:49:25;395.98;;;377.50;;
9222;SDS011;7557;51.698;3.942;2023-11-19T09:51:55;414.17;;;395.08;;
9222;SDS011;7557;51.698;3.942;2023-11-19T09:54:23;404.90;;;386.58;;
9222;SDS011;7557;51.698;3.942;2023-11-19T09:56:51;390.88;;;373.58;;
9222;SDS011;7557;51.698;3.942;2023-11-19T09:59:19;429.52;;;409.98;;
9222;SDS011;7557;51.698;3.942;2023-11-19T10:01:47;378.80;;;362.10;;
9222;SDS011;7557;51.698;3.942;2023-11-19T10:04:15;455.60;;;432.88;;
9222;SDS011;7557;51.698;3.942;2023-11-19T10:06:43;449.95;;;430.15;;
9222;SDS011;7557;51.698;3.942;2023-11-19T10:09:13;466.10;;;444.65;;
9222;SDS011;7557;51.698;3.942;2023-11-19T10:11:41;453.23;;;432.58;;
9222;SDS011;7557;51.698;3.942;2023-11-19T10:14:09;411.27;;;392.75;;
9222;SDS011;7557;51.698;3.942;2023-11-19T10:16:39;424.02;;;404.73;;
9222;SDS011;7557;51.698;3.942;2023-11-19T10:19:08;365.13;;;348.45;;
9222;SDS011;7557;51.698;3.942;2023-11-19T10:21:45;422.13;;;402.63;;
9222;SDS011;7557;51.698;3.942;2023-11-19T10:24:15;440.25;;;421.13;;
9222;SDS011;7557;51.698;3.942;2023-11-19T10:26:42;390.17;;;373.17;;
9222;SDS011;7557;51.698;3.942;2023-11-19T10:29:12;409.65;;;392.52;;
9222;SDS011;7557;51.698;3.942;2023-11-19T10:31:39;358.42;;;343.80;;
9222;SDS011;7557;51.698;3.942;2023-11-19T10:34:14;350.75;;;335.98;;
9222;SDS011;7557;51.698;3.942;2023-11-19T10:36:51;349.63;;;335.33;;
9222;SDS011;7557;51.698;3.942;2023-11-19T10:39:20;246.48;;;236.05;;
9222;SDS011;7557;51.698;3.942;2023-11-19T10:41:49;302.42;;;289.40;;
9222;SDS011;7557;51.698;3.942;2023-11-19T10:44:32;409.38;;;391.02;;
9222;SDS011;7557;51.698;3.942;2023-11-19T10:47:01;285.27;;;272.25;;
9222;SDS011;7557;51.698;3.942;2023-11-19T10:49:32;446.40;;;424.65;;
9222;SDS011;7557;51.698;3.942;2023-11-19T10:52:00;319.80;;;305.48;;
9222;SDS011;7557;51.698;3.942;2023-11-19T10:54:30;264.65;;;252.20;;
9222;SDS011;7557;51.698;3.942;2023-11-19T10:56:59;353.55;;;338.13;;
9222;SDS011;7557;51.698;3.942;2023-11-19T10:59:28;309.73;;;296.83;;
9222;SDS011;7557;51.698;3.942;2023-11-19T11:01:57;352.33;;;336.00;;
9222;SDS011;7557;51.698;3.942;2023-11-19T11:04:31;293.50;;;279.98;;
9222;SDS011;7557;51.698;3.942;2023-11-19T11:07:07;308.85;;;294.77;;
9222;SDS011;7557;51.698;3.942;2023-11-19T11:09:37;274.70;;;261.70;;
9222;SDS011;7557;51.698;3.942;2023-11-19T11:12:06;327.38;;;311.63;;
9222;SDS011;7557;51.698;3.942;2023-11-19T11:14:36;355.02;;;339.05;;
9222;SDS011;7557;51.698;3.942;2023-11-19T11:17:09;276.15;;;263.27;;
9222;SDS011;7557;51.698;3.942;2023-11-19T11:19:45;274.35;;;260.85;;
9222;SDS011;7557;51.698;3.942;2023-11-19T11:22:15;326.88;;;311.15;;
9222;SDS011;7557;51.698;3.942;2023-11-19T11:27:48;444.13;;;424.85;;
9222;SDS011;7557;51.698;3.942;2023-11-19T11:30:45;391.88;;;374.75;;
9222;SDS011;7557;51.698;3.942;2023-11-19T11:33:28;358.13;;;341.70;;
9222;SDS011;7557;51.698;3.942;2023-11-19T11:36:10;334.15;;;319.45;;
9222;SDS011;7557;51.698;3.942;2023-11-19T11:38:42;309.85;;;296.20;;
9222;SDS011;7557;51.698;3.942;2023-11-19T11:41:17;360.00;;;343.88;;
9222;SDS011;7557;51.698;3.942;2023-11-19T11:43:47;407.10;;;389.15;;
9222;SDS011;7557;51.698;3.942;2023-11-19T11:49:25;343.70;;;328.02;;
9222;SDS011;7557;51.698;3.942;2023-11-19T11:52:01;427.13;;;407.20;;
9222;SDS011;7557;51.698;3.942;2023-11-19T11:54:33;425.35;;;405.15;;
9222;SDS011;7557;51.698;3.942;2023-11-19T11:57:04;369.50;;;353.00;;
9222;SDS011;7557;51.698;3.942;2023-11-19T11:59:42;383.33;;;366.80;;
9222;SDS011;7557;51.698;3.942;2023-11-19T12:02:13;484.90;;;459.83;;
9222;SDS011;7557;51.698;3.942;2023-11-19T12:04:46;398.58;;;380.27;;
9222;SDS011;7557;51.698;3.942;2023-11-19T12:07:16;401.17;;;383.40;;
9222;SDS011;7557;51.698;3.942;2023-11-19T12:09:48;506.90;;;482.27;;
9222;SDS011;7557;51.698;3.942;2023-11-19T12:12:26;456.02;;;436.05;;
9222;SDS011;7557;51.698;3.942;2023-11-19T12:15:01;525.28;;;496.75;;
9222;SDS011;7557;51.698;3.942;2023-11-19T12:17:40;420.17;;;402.15;;
9222;SDS011;7557;51.698;3.942;2023-11-19T12:20:18;447.13;;;428.63;;
9222;SDS011;7557;51.698;3.942;2023-11-19T12:22:46;488.15;;;467.70;;
9222;SDS011;7557;51.698;3.942;2023-11-19T12:25:15;476.70;;;454.30;;
9222;SDS011;7557;51.698;3.942;2023-11-19T12:27:46;435.95;;;416.30;;
9222;SDS011;7557;51.698;3.942;2023-11-19T12:30:16;507.83;;;484.00;;
9222;SDS011;7557;51.698;3.942;2023-11-19T12:32:46;434.95;;;414.13;;
9222;SDS011;7557;51.698;3.942;2023-11-19T12:35:14;411.25;;;392.83;;
9222;SDS011;7557;51.698;3.942;2023-11-19T12:37:42;468.88;;;448.30;;
9222;SDS011;7557;51.698;3.942;2023-11-19T12:40:16;446.55;;;427.40;;
9222;SDS011;7557;51.698;3.942;2023-11-19T12:42:46;422.17;;;402.75;;
9222;SDS011;7557;51.698;3.942;2023-11-19T12:45:14;405.80;;;386.67;;
9222;SDS011;7557;51.698;3.942;2023-11-19T12:47:42;371.35;;;355.50;;
9222;SDS011;7557;51.698;3.942;2023-11-19T12:50:12;385.50;;;369.10;;
9222;SDS011;7557;51.698;3.942;2023-11-19T12:52:39;381.08;;;364.48;;
9222;SDS011;7557;51.698;3.942;2023-11-19T12:57:55;370.13;;;353.10;;
9222;SDS011;7557;51.698;3.942;2023-11-19T13:00:24;384.58;;;367.58;;
9222;SDS011;7557;51.698;3.942;2023-11-19T13:02:53;370.63;;;354.35;;
9222;SDS011;7557;51.698;3.942;2023-11-19T13:05:25;376.75;;;358.90;;
9222;SDS011;7557;51.698;3.942;2023-11-19T13:08:00;397.13;;;377.00;;
9222;SDS011;7557;51.698;3.942;2023-11-19T13:10:30;362.08;;;344.52;;
9222;SDS011;7557;51.698;3.942;2023-11-19T13:13:03;399.70;;;381.90;;
9222;SDS011;7557;51.698;3.942;2023-11-19T13:15:31;395.60;;;378.55;;
9222;SDS011;7557;51.698;3.942;2023-11-19T13:17:59;464.90;;;441.20;;
9222;SDS011;7557;51.698;3.942;2023-11-19T13:20:27;470.02;;;447.98;;
9222;SDS011;7557;51.698;3.942;2023-11-19T13:22:58;412.02;;;392.83;;
9222;SDS011;7557;51.698;3.942;2023-11-19T13:25:28;386.40;;;369.00;;
9222;SDS011;7557;51.698;3.942;2023-11-19T13:27:56;416.03;;;397.53;;
9222;SDS011;7557;51.698;3.942;2023-11-19T13:30:25;453.83;;;433.70;;
9222;SDS011;7557;51.698;3.942;2023-11-19T13:32:53;442.80;;;422.83;;
9222;SDS011;7557;51.698;3.942;2023-11-19T13:35:21;431.45;;;412.55;;
9222;SDS011;7557;51.698;3.942;2023-11-19T13:37:50;389.20;;;372.15;;
9222;SDS011;7557;51.698;3.942;2023-11-19T13:40:19;418.90;;;400.30;;
9222;SDS011;7557;51.698;3.942;2023-11-19T13:42:47;394.45;;;375.65;;
9222;SDS011;7557;51.698;3.942;2023-11-19T13:45:16;458.85;;;434.75;;
9222;SDS011;7557;51.698;3.942;2023-11-19T13:47:47;476.55;;;451.25;;
9222;SDS011;7557;51.698;3.942;2023-11-19T13:50:15;331.42;;;316.80;;
9222;SDS011;7557;51.698;3.942;2023-11-19T13:52:44;323.15;;;308.75;;
9222;SDS011;7557;51.698;3.942;2023-11-19T13:55:13;394.23;;;376.90;;
9222;SDS011;7557;51.698;3.942;2023-11-19T13:57:41;363.83;;;348.60;;
9222;SDS011;7557;51.698;3.942;2023-11-19T14:00:12;362.58;;;346.80;;
9222;SDS011;7557;51.698;3.942;2023-11-19T14:02:42;360.85;;;344.45;;
9222;SDS011;7557;51.698;3.942;2023-11-19T14:05:11;406.88;;;388.60;;
9222;SDS011;7557;51.698;3.942;2023-11-19T14:07:39;359.33;;;343.50;;
9222;SDS011;7557;51.698;3.942;2023-11-19T14:10:07;328.02;;;313.88;;
9222;SDS011;7557;51.698;3.942;2023-11-19T14:12:36;351.63;;;336.60;;
9222;SDS011;7557;51.698;3.942;2023-11-19T14:15:04;339.27;;;324.20;;
9222;SDS011;7557;51.698;3.942;2023-11-19T14:17:32;295.80;;;283.10;;
9222;SDS011;7557;51.698;3.942;2023-11-19T14:20:02;376.33;;;359.70;;
9222;SDS011;7557;51.698;3.942;2023-11-19T14:22:39;343.90;;;330.13;;
9222;SDS011;7557;51.698;3.942;2023-11-19T14:25:08;413.67;;;395.13;;
9222;SDS011;7557;51.698;3.942;2023-11-19T14:27:36;362.20;;;346.67;;
9222;SDS011;7557;51.698;3.942;2023-11-19T14:30:04;378.45;;;362.05;;
9222;SDS011;7557;51.698;3.942;2023-11-19T14:32:33;391.90;;;375.27;;
9222;SDS011;7557;51.698;3.942;2023-11-19T14:35:01;396.40;;;379.77;;
9222;SDS011;7557;51.698;3.942;2023-11-19T14:37:29;386.25;;;369.55;;
9222;SDS011;7557;51.698;3.942;2023-11-19T14:39:59;522.58;;;497.23;;
9222;SDS011;7557;51.698;3.942;2023-11-19T14:42:29;424.75;;;406.08;;
9222;SDS011;7557;51.698;3.942;2023-11-19T14:44:57;403.30;;;385.73;;